createdAt,value
2018-12-03T00:00:11.122Z,32.6
2018-12-03T00:02:08.345Z,32.6
2018-12-03T00:04:05.063Z,32.6
2018-12-03T00:06:05.812Z,32.6
2018-12-03T00:08:05.582Z,32.6
2018-12-03T00:10:08.036Z,32.6
2018-12-03T00:12:05.801Z,32.6
2018-12-03T00:14:05.539Z,32.6
2018-12-03T00:16:07.776Z,32.5
2018-12-03T00:18:05.645Z,32.5
2018-12-03T00:20:05.321Z,32.5
2018-12-03T00:22:11.412Z,32.5
2018-12-03T00:24:05.227Z,32.5
2018-12-03T00:26:11.082Z,32.6
2018-12-03T00:28:05.765Z,32.6
2018-12-03T00:30:05.665Z,32.6
2018-12-03T00:32:05.373Z,32.6
2018-12-03T00:34:05.644Z,32.6
2018-12-03T00:36:05.291Z,32.6
2018-12-03T00:38:08.504Z,32.6
2018-12-03T00:40:05.241Z,32.6
2018-12-03T00:42:11.001Z,32.6
2018-12-03T00:44:13.291Z,32.6
2018-12-03T00:46:06.051Z,32.6
2018-12-03T00:48:05.964Z,32.6
2018-12-03T00:50:05.668Z,32.8
2018-12-03T00:52:05.425Z,32.5
2018-12-03T00:54:05.116Z,32.6
2018-12-03T00:56:05.818Z,32.7
2018-12-03T00:58:07.583Z,32.7
2018-12-03T01:00:05.245Z,32.5
2018-12-03T01:02:05.962Z,32.7
2018-12-03T01:04:05.647Z,32.7
2018-12-03T01:06:05.414Z,32.7
2018-12-03T01:08:05.134Z,32.6
2018-12-03T01:10:08.323Z,32.7
2018-12-03T01:12:05.975Z,32.7
2018-12-03T01:14:06.372Z,32.7
2018-12-03T01:16:05.810Z,32.8
2018-12-03T01:18:08.252Z,32.6
2018-12-03T01:20:05.609Z,32.6
2018-12-03T01:22:05.353Z,32.6
2018-12-03T01:24:05.072Z,32.6
2018-12-03T01:26:05.704Z,32.6
2018-12-03T01:28:05.455Z,32.5
2018-12-03T01:30:08.218Z,32.6
2018-12-03T01:32:05.987Z,32.6
2018-12-03T01:34:05.238Z,32.7
2018-12-03T01:36:05.896Z,32.7
2018-12-03T01:38:05.631Z,32.7
2018-12-03T01:40:08.697Z,32.5
2018-12-03T01:42:05.461Z,32.5
2018-12-03T01:44:05.709Z,32.8
2018-12-03T01:46:08.073Z,32.7
2018-12-03T01:48:05.781Z,32.7
2018-12-03T01:50:05.082Z,32.8
2018-12-03T01:52:05.775Z,32.9
2018-12-03T01:54:05.580Z,32.8
2018-12-03T01:56:07.817Z,32.7
2018-12-03T01:58:05.148Z,32.7
2018-12-03T02:00:06.002Z,32.6
2018-12-03T02:02:08.339Z,32.6
2018-12-03T02:04:05.026Z,32.6
2018-12-03T02:06:10.923Z,32.8
2018-12-03T02:08:05.850Z,32.6
2018-12-03T02:10:05.510Z,32.8
2018-12-03T02:12:05.237Z,32.7
2018-12-03T02:14:07.988Z,32.7
2018-12-03T02:16:07.750Z,32.8
2018-12-03T02:18:05.741Z,32.7
2018-12-03T02:20:06.073Z,32.8
2018-12-03T02:22:05.822Z,32.8
2018-12-03T02:24:08.055Z,32.8
2018-12-03T02:26:05.774Z,32.8
2018-12-03T02:28:05.034Z,32.8
2018-12-03T02:30:05.708Z,32.6
2018-12-03T02:32:05.400Z,32.8
2018-12-03T02:34:05.076Z,32.7
2018-12-03T02:36:08.669Z,32.8
2018-12-03T02:38:05.340Z,32.8
2018-12-03T02:40:04.998Z,32.7
2018-12-03T02:42:05.676Z,32.7
2018-12-03T02:44:06.022Z,32.6
2018-12-03T02:46:07.792Z,32.7
2018-12-03T02:48:08.012Z,32.8
2018-12-03T02:50:07.752Z,32.8
2018-12-03T02:52:07.998Z,32.6
2018-12-03T02:54:05.794Z,32.6
2018-12-03T02:56:05.577Z,32.8
2018-12-03T02:58:05.301Z,32.8
2018-12-03T03:00:11.013Z,32.7
2018-12-03T03:02:05.912Z,32.7
2018-12-03T03:04:05.192Z,32.7
2018-12-03T03:06:05.921Z,32.8
2018-12-03T03:08:07.710Z,32.8
2018-12-03T03:10:07.901Z,32.6
2018-12-03T03:12:05.562Z,32.9
2018-12-03T03:14:05.269Z,32.8
2018-12-03T03:16:06.215Z,32.8
2018-12-03T03:18:07.716Z,32.8
2018-12-03T03:20:05.493Z,32.8
2018-12-03T03:22:08.394Z,32.8
2018-12-03T03:24:08.848Z,32.8
2018-12-03T03:26:05.544Z,32.8
2018-12-03T03:28:05.284Z,32.7
2018-12-03T03:30:05.959Z,32.8
2018-12-03T03:32:05.691Z,32.8
2018-12-03T03:34:05.434Z,32.8
2018-12-03T03:36:05.136Z,32.9
2018-12-03T03:38:10.897Z,32.6
2018-12-03T03:40:05.588Z,32.9
2018-12-03T03:42:05.354Z,32.7
2018-12-03T03:44:05.220Z,32.7
2018-12-03T03:46:05.894Z,32.8
2018-12-03T03:48:08.105Z,32.8
2018-12-03T03:50:05.752Z,32.8
2018-12-03T03:52:05.423Z,32.8
2018-12-03T03:54:05.142Z,32.9
2018-12-03T03:56:05.344Z,32.8
2018-12-03T03:58:05.044Z,32.8
2018-12-03T04:00:05.280Z,32.8
2018-12-03T04:02:05.959Z,32.8
2018-12-03T04:04:05.695Z,33
2018-12-03T04:06:05.430Z,33
2018-12-03T04:08:08.012Z,32.9
2018-12-03T04:10:05.703Z,32.9
2018-12-03T04:12:05.353Z,32.8
2018-12-03T04:14:10.094Z,32.7
2018-12-03T04:16:05.810Z,32.7
2018-12-03T04:18:10.344Z,32.7
2018-12-03T04:20:05.082Z,32.7
2018-12-03T04:22:05.748Z,32.9
2018-12-03T04:24:05.133Z,33
2018-12-03T04:26:05.825Z,33
2018-12-03T04:28:05.644Z,32.9
2018-12-03T04:30:05.881Z,32.9
2018-12-03T04:32:12.710Z,32.7
2018-12-03T04:34:05.531Z,32.7
2018-12-03T04:36:05.782Z,33
2018-12-03T04:38:05.478Z,33
2018-12-03T04:40:05.307Z,33
2018-12-03T04:42:05.040Z,32.7
2018-12-03T04:44:10.799Z,32.8
2018-12-03T04:46:05.481Z,32.7
2018-12-03T04:48:05.177Z,33
2018-12-03T04:50:05.857Z,33
2018-12-03T04:52:05.101Z,33
2018-12-03T04:54:05.761Z,32.8
2018-12-03T04:56:10.575Z,32.8
2018-12-03T04:58:05.238Z,32.8
2018-12-03T05:00:05.896Z,32.8
2018-12-03T05:02:07.639Z,33
2018-12-03T05:04:05.313Z,32.8
2018-12-03T05:06:04.989Z,32.8
2018-12-03T05:08:05.208Z,32.8
2018-12-03T05:10:05.436Z,32.9
2018-12-03T05:12:05.200Z,32.9
2018-12-03T05:14:10.961Z,32.8
2018-12-03T05:16:05.655Z,32.8
2018-12-03T05:18:05.535Z,32.8
2018-12-03T05:20:10.339Z,32.8
2018-12-03T05:22:05.574Z,32.8
2018-12-03T05:24:07.756Z,33
2018-12-03T05:26:05.436Z,32.8
2018-12-03T05:28:07.711Z,32.9
2018-12-03T05:30:08.477Z,32.8
2018-12-03T05:32:05.201Z,32.8
2018-12-03T05:34:10.980Z,32.9
2018-12-03T05:36:05.711Z,32.9
2018-12-03T05:38:05.448Z,32.8
2018-12-03T05:40:05.731Z,33
2018-12-03T05:42:08.629Z,33
2018-12-03T05:44:08.695Z,33.3
2018-12-03T05:46:05.091Z,32.8
2018-12-03T05:48:10.826Z,32.8
2018-12-03T05:50:05.603Z,32.8
2018-12-03T05:52:07.855Z,32.8
2018-12-03T05:54:05.134Z,32.8
2018-12-03T05:56:08.357Z,33
2018-12-03T05:58:05.520Z,33
2018-12-03T06:00:05.197Z,32.8
2018-12-03T06:02:05.418Z,32.8
2018-12-03T06:04:05.673Z,32.9
2018-12-03T06:06:05.424Z,32.8
2018-12-03T06:08:05.127Z,32.9
2018-12-03T06:10:05.381Z,33
2018-12-03T06:12:05.161Z,33
2018-12-03T06:14:05.854Z,33
2018-12-03T06:16:05.522Z,32.8
2018-12-03T06:18:05.363Z,32.8
2018-12-03T06:20:07.561Z,32.9
2018-12-03T06:22:05.350Z,32.9
2018-12-03T06:24:04.985Z,33
2018-12-03T06:26:05.637Z,32.8
2018-12-03T06:28:05.293Z,32.8
2018-12-03T06:30:05.985Z,33
2018-12-03T06:32:05.722Z,32.9
2018-12-03T06:34:05.485Z,32.8
2018-12-03T06:36:05.663Z,32.8
2018-12-03T06:38:07.862Z,32.9
2018-12-03T06:40:05.551Z,32.9
2018-12-03T06:42:07.753Z,33
2018-12-03T06:44:05.422Z,33
2018-12-03T06:46:05.101Z,33
2018-12-03T06:48:05.805Z,33.1
2018-12-03T06:50:05.471Z,33.1
2018-12-03T06:52:05.154Z,32.9
2018-12-03T06:54:05.816Z,33
2018-12-03T06:56:09.047Z,33
2018-12-03T06:58:06.201Z,33
2018-12-03T07:00:05.882Z,33.1
2018-12-03T07:02:05.561Z,33
2018-12-03T07:04:05.187Z,33
2018-12-03T07:06:08.376Z,33.1
2018-12-03T07:08:05.009Z,33.1
2018-12-03T07:10:05.409Z,33
2018-12-03T07:12:05.575Z,33
2018-12-03T07:14:07.798Z,33
2018-12-03T07:16:05.494Z,33
2018-12-03T07:18:05.447Z,32.9
2018-12-03T07:20:10.776Z,33.1
2018-12-03T07:22:05.466Z,33.1
2018-12-03T07:24:07.658Z,33.1
2018-12-03T07:26:05.324Z,33.1
2018-12-03T07:28:06.018Z,33.1
2018-12-03T07:30:08.203Z,33
2018-12-03T07:32:05.941Z,33
2018-12-03T07:34:05.611Z,33
2018-12-03T07:36:05.287Z,33.1
2018-12-03T07:38:05.905Z,33.1
2018-12-03T07:40:05.540Z,33
2018-12-03T07:42:05.242Z,33.1
2018-12-03T07:44:05.973Z,33.1
2018-12-03T07:46:05.245Z,33.1
2018-12-03T07:48:05.910Z,33
2018-12-03T07:50:05.631Z,33
2018-12-03T07:52:10.366Z,33
2018-12-03T07:54:05.035Z,33
2018-12-03T07:56:05.744Z,33.1
2018-12-03T07:58:05.472Z,32.9
2018-12-03T08:00:05.185Z,33
2018-12-03T08:02:08.420Z,33.1
2018-12-03T08:04:05.332Z,32.9
2018-12-03T08:06:13.173Z,33.1
2018-12-03T08:08:05.828Z,33.1
2018-12-03T08:10:05.485Z,33.1
2018-12-03T08:12:05.145Z,33
2018-12-03T08:14:05.933Z,33.1
2018-12-03T08:16:05.142Z,32.8
2018-12-03T08:18:04.979Z,33
2018-12-03T08:20:10.677Z,33
2018-12-03T08:22:05.373Z,33
2018-12-03T08:24:15.149Z,33.2
2018-12-03T08:26:10.490Z,33.2
2018-12-03T08:28:05.173Z,33.2
2018-12-03T08:30:05.852Z,33.1
2018-12-03T08:32:10.649Z,33
2018-12-03T08:34:05.360Z,33
2018-12-03T08:36:05.034Z,33.1
2018-12-03T08:38:05.726Z,33.1
2018-12-03T08:40:05.394Z,33
2018-12-03T08:42:05.070Z,33.2
2018-12-03T08:44:05.824Z,33.2
2018-12-03T08:46:05.602Z,33.2
2018-12-03T08:48:05.831Z,33.1
2018-12-03T08:50:05.503Z,33.1
2018-12-03T08:52:07.740Z,33.1
2018-12-03T08:54:05.415Z,33.1
2018-12-03T08:56:10.700Z,33
2018-12-03T08:58:15.711Z,33
2018-12-03T09:00:05.378Z,33
2018-12-03T09:02:05.683Z,33
2018-12-03T09:04:05.367Z,33
2018-12-03T09:06:05.053Z,33
2018-12-03T09:08:08.269Z,33.1
2018-12-03T09:10:05.941Z,33.1
2018-12-03T09:12:08.237Z,32.9
2018-12-03T09:14:08.426Z,33.1
2018-12-03T09:16:05.709Z,33.1
2018-12-03T09:18:05.617Z,33
2018-12-03T09:20:05.319Z,33
2018-12-03T09:22:08.522Z,33.1
2018-12-03T09:24:07.749Z,33.1
2018-12-03T09:26:08.459Z,33.1
2018-12-03T09:28:05.662Z,33.1
2018-12-03T09:30:05.367Z,33
2018-12-03T09:32:05.136Z,33.1
2018-12-03T09:34:05.833Z,33.1
2018-12-03T09:36:05.516Z,33.1
2018-12-03T09:38:05.242Z,33
2018-12-03T09:40:05.932Z,33
2018-12-03T09:42:06.199Z,33
2018-12-03T09:44:05.868Z,33
2018-12-03T09:46:05.575Z,33
2018-12-03T09:48:05.814Z,32.9
2018-12-03T09:50:05.519Z,33
2018-12-03T09:52:08.171Z,33.2
2018-12-03T09:54:08.421Z,32.9
2018-12-03T09:56:07.657Z,32.9
2018-12-03T09:58:07.942Z,32.9
2018-12-03T10:00:05.947Z,32.9
2018-12-03T10:02:05.610Z,32.9
2018-12-03T10:04:08.338Z,33.2
2018-12-03T10:06:06.034Z,32.9
2018-12-03T10:08:05.786Z,32.9
2018-12-03T10:10:08.002Z,32.9
2018-12-03T10:12:05.713Z,33
2018-12-03T10:14:06.029Z,33.2
2018-12-03T10:16:05.718Z,33
2018-12-03T10:18:05.644Z,33.2
2018-12-03T10:20:05.353Z,33.2
2018-12-03T10:22:05.579Z,33
2018-12-03T10:24:10.382Z,33.1
2018-12-03T10:26:05.109Z,33.1
2018-12-03T10:28:05.799Z,33.1
2018-12-03T10:30:05.489Z,33.2
2018-12-03T10:32:05.227Z,33
2018-12-03T10:34:08.576Z,33.1
2018-12-03T10:36:07.903Z,33.1
2018-12-03T10:38:10.690Z,33.1
2018-12-03T10:40:07.895Z,33.1
2018-12-03T10:42:05.616Z,33.1
2018-12-03T10:44:07.828Z,33.1
2018-12-03T10:46:05.532Z,33.1
2018-12-03T10:48:07.764Z,33.2
2018-12-03T10:50:05.448Z,33
2018-12-03T10:52:05.159Z,33
2018-12-03T10:54:05.997Z,33.2
2018-12-03T10:56:05.721Z,33
2018-12-03T10:58:05.953Z,33.2
2018-12-03T11:00:12.721Z,33.2
2018-12-03T11:02:05.417Z,33.2
2018-12-03T11:04:05.070Z,33.2
2018-12-03T11:06:05.814Z,33.2
2018-12-03T11:08:05.511Z,33.1
2018-12-03T11:10:05.178Z,33.2
2018-12-03T11:12:05.415Z,33.1
2018-12-03T11:14:05.140Z,33.1
2018-12-03T11:16:05.902Z,33.2
2018-12-03T11:18:05.817Z,33.2
2018-12-03T11:20:08.018Z,33
2018-12-03T11:22:05.603Z,33
2018-12-03T11:24:05.327Z,33.1
2018-12-03T11:26:05.068Z,33.1
2018-12-03T11:28:05.726Z,33.1
2018-12-03T11:30:06.012Z,33.1
2018-12-03T11:32:05.782Z,33.1
2018-12-03T11:34:11.022Z,33.2
2018-12-03T11:36:05.684Z,33.1
2018-12-03T11:38:05.462Z,33
2018-12-03T11:40:05.163Z,33.3
2018-12-03T11:42:08.424Z,33.2
2018-12-03T11:44:05.254Z,33.2
2018-12-03T11:46:08.476Z,33.2
2018-12-03T11:48:05.143Z,33.2
2018-12-03T11:50:05.916Z,33.1
2018-12-03T11:52:05.541Z,33.1
2018-12-03T11:54:05.244Z,33.1
2018-12-03T11:56:08.483Z,33
2018-12-03T11:58:05.212Z,33
2018-12-03T12:00:05.907Z,33
2018-12-03T12:02:05.610Z,33.3
2018-12-03T12:04:05.301Z,33
2018-12-03T12:06:08.552Z,33.3
2018-12-03T12:08:05.791Z,33.2
2018-12-03T12:10:06.063Z,33.6
2018-12-03T12:12:07.756Z,35.4
2018-12-03T12:14:06.075Z,35.3
2018-12-03T12:16:05.748Z,34.8
2018-12-03T12:18:05.626Z,35.1
2018-12-03T12:20:07.786Z,35.6
2018-12-03T12:22:05.454Z,35.6
2018-12-03T12:24:05.185Z,36.1
2018-12-03T12:26:05.892Z,36.5
2018-12-03T12:28:05.558Z,36.7
2018-12-03T12:30:05.427Z,37
2018-12-03T12:32:05.278Z,36.7
2018-12-03T12:34:08.498Z,36.5
2018-12-03T12:36:08.237Z,36.5
2018-12-03T12:38:05.913Z,36.5
2018-12-03T12:40:08.212Z,36.7
2018-12-03T12:42:05.863Z,36.5
2018-12-03T12:44:05.539Z,36.6
2018-12-03T12:46:07.717Z,36.1
2018-12-03T12:48:05.408Z,36.4
2018-12-03T12:50:05.162Z,36.3
2018-12-03T12:52:05.848Z,36.4
2018-12-03T12:54:05.613Z,36.3
2018-12-03T12:56:05.317Z,36.1
2018-12-03T12:58:05.605Z,36
2018-12-03T13:00:06.896Z,36.2
2018-12-03T13:02:05.602Z,36
2018-12-03T13:04:05.311Z,36
2018-12-03T13:06:11.293Z,35.7
2018-12-03T13:08:05.982Z,35.7
2018-12-03T13:10:05.694Z,35.6
2018-12-03T13:12:06.020Z,35.6
2018-12-03T13:14:05.695Z,35.3
2018-12-03T13:16:05.537Z,35.3
2018-12-03T13:18:05.453Z,35.2
2018-12-03T13:20:05.128Z,35
2018-12-03T13:22:05.372Z,34.8
2018-12-03T13:24:05.109Z,34.8
2018-12-03T13:26:05.878Z,34.6
2018-12-03T13:28:05.110Z,34.8
2018-12-03T13:30:05.797Z,34.6
2018-12-03T13:32:05.410Z,34.7
2018-12-03T13:34:07.663Z,34.6
2018-12-03T13:36:05.375Z,34.6
2018-12-03T13:38:05.081Z,34.5
2018-12-03T13:40:08.260Z,34.4
2018-12-03T13:42:05.465Z,34.4
2018-12-03T13:44:05.111Z,34.3
2018-12-03T13:46:05.877Z,34.3
2018-12-03T13:48:05.092Z,34.2
2018-12-03T13:50:08.291Z,34.3
2018-12-03T13:52:05.664Z,34.3
2018-12-03T13:54:05.363Z,34.2
2018-12-03T13:56:05.582Z,34.3
2018-12-03T13:58:10.362Z,34
2018-12-03T14:00:05.641Z,34.3
2018-12-03T14:02:05.351Z,34
2018-12-03T14:04:15.339Z,34.2
2018-12-03T14:06:10.576Z,34
2018-12-03T14:08:05.230Z,34
2018-12-03T14:10:16.044Z,34.2
2018-12-03T14:12:08.399Z,34.2
2018-12-03T14:14:05.131Z,34.2
2018-12-03T14:16:05.862Z,34.1
2018-12-03T14:18:05.785Z,34.1
2018-12-03T14:20:05.480Z,34.1
2018-12-03T14:22:05.178Z,34.1
2018-12-03T14:24:06.212Z,34.1
2018-12-03T14:26:05.888Z,34
2018-12-03T14:28:05.165Z,33.8
2018-12-03T14:30:11.773Z,33.8
2018-12-03T14:32:05.738Z,33.8
2018-12-03T14:34:07.924Z,34
2018-12-03T14:36:05.640Z,33.8
2018-12-03T14:38:05.365Z,34
2018-12-03T14:40:05.106Z,34.1
2018-12-03T14:42:05.761Z,34
2018-12-03T14:44:07.435Z,33.7
2018-12-03T14:46:05.112Z,33.8
2018-12-03T14:48:05.803Z,33.8
2018-12-03T14:50:05.498Z,33.9
2018-12-03T14:52:05.702Z,33.7
2018-12-03T14:54:07.980Z,33.8
2018-12-03T14:56:05.632Z,33.8
2018-12-03T14:58:05.361Z,33.8
2018-12-03T15:00:05.071Z,33.8
2018-12-03T15:02:06.945Z,33.7
2018-12-03T15:04:10.702Z,33.7
2018-12-03T15:06:07.743Z,33.6
2018-12-03T15:08:05.545Z,33.6
2018-12-03T15:10:07.855Z,33.5
2018-12-03T15:12:05.603Z,33.5
2018-12-03T15:14:07.835Z,33.7
2018-12-03T15:16:05.521Z,33.7
2018-12-03T15:18:05.445Z,33.7
2018-12-03T15:20:05.182Z,33.7
2018-12-03T15:22:05.822Z,33.8
2018-12-03T15:24:05.584Z,33.8
2018-12-03T15:26:05.298Z,34
2018-12-03T15:28:05.993Z,34.4
2018-12-03T15:30:08.274Z,34.4
2018-12-03T15:32:05.940Z,34.4
2018-12-03T15:34:10.510Z,34.5
2018-12-03T15:36:05.224Z,34.5
2018-12-03T15:38:05.427Z,34.5
2018-12-03T15:40:05.442Z,34.5
2018-12-03T15:42:05.399Z,34.5
2018-12-03T15:44:05.252Z,34.4
2018-12-03T15:46:08.605Z,34.6
2018-12-03T15:48:06.285Z,34.6
2018-12-03T15:50:11.067Z,34.5
2018-12-03T15:52:09.207Z,34.4
2018-12-03T15:54:07.656Z,34.6
2018-12-03T15:56:06.042Z,34.5
2018-12-03T15:58:05.712Z,34.6
2018-12-03T16:00:05.845Z,34.4
2018-12-03T16:02:05.569Z,34.6
2018-12-03T16:04:10.355Z,34.4
2018-12-03T16:06:11.129Z,34.5
2018-12-03T16:08:05.482Z,34.5
2018-12-03T16:10:05.253Z,34.5
2018-12-03T16:12:06.446Z,34.6
2018-12-03T16:14:05.538Z,34.7
2018-12-03T16:16:05.343Z,34.5
2018-12-03T16:18:05.471Z,34.5
2018-12-03T16:20:05.230Z,34.6
2018-12-03T16:22:05.920Z,34.5
2018-12-03T16:24:06.887Z,34.5
2018-12-03T16:26:08.078Z,34.7
2018-12-03T16:28:08.260Z,34.8
2018-12-03T16:30:05.932Z,34.7
2018-12-03T16:32:13.422Z,34.7
2018-12-03T16:34:12.739Z,34.6
2018-12-03T16:36:05.786Z,34.6
2018-12-03T16:38:05.568Z,34.7
2018-12-03T16:40:05.289Z,34.7
2018-12-03T16:42:07.745Z,35
2018-12-03T16:44:08.044Z,34.8
2018-12-03T16:46:05.911Z,34.8
2018-12-03T16:48:05.599Z,35.1
2018-12-03T16:50:05.413Z,34.9
2018-12-03T16:52:07.677Z,35.2
2018-12-03T16:54:05.344Z,35.2
2018-12-03T16:56:05.642Z,35
2018-12-03T16:58:05.289Z,34.9
2018-12-03T17:00:06.000Z,34.7
2018-12-03T17:02:06.740Z,34.6
2018-12-03T17:04:05.533Z,34.6
2018-12-03T17:06:13.507Z,34.4
2018-12-03T17:08:06.023Z,34.5
2018-12-03T17:10:08.417Z,34.4
2018-12-03T17:12:08.293Z,34.3
2018-12-03T17:14:06.013Z,34.5
2018-12-03T17:16:05.886Z,34.4
2018-12-03T17:18:06.027Z,34.4
2018-12-03T17:20:08.015Z,34.3
2018-12-03T17:22:05.979Z,34.1
2018-12-03T17:24:05.854Z,34.2
2018-12-03T17:26:05.739Z,34.2
2018-12-03T17:28:18.260Z,34.1
2018-12-03T17:30:05.600Z,34.1
2018-12-03T17:32:05.572Z,34.1
2018-12-03T17:34:09.114Z,34.1
2018-12-03T17:36:06.057Z,34.1
2018-12-03T17:38:05.937Z,34.1
2018-12-03T17:40:05.197Z,34.1
2018-12-03T17:42:05.886Z,34
2018-12-03T17:44:05.150Z,34
2018-12-03T17:46:11.409Z,33.9
2018-12-03T17:48:05.732Z,34.1
2018-12-03T17:50:05.400Z,33.9
2018-12-03T17:52:10.378Z,33.9
2018-12-03T17:54:13.104Z,33.9
2018-12-03T17:56:06.713Z,33.9
2018-12-03T17:58:07.367Z,34
2018-12-03T18:00:05.404Z,34
2018-12-03T18:02:06.180Z,33.9
2018-12-03T18:04:07.287Z,34
2018-12-03T18:06:08.457Z,33.8
2018-12-03T18:08:06.047Z,33.8
2018-12-03T18:10:05.946Z,33.8
2018-12-03T18:12:05.303Z,34
2018-12-03T18:14:05.191Z,33.8
2018-12-03T18:16:06.675Z,33.8
2018-12-03T18:18:05.345Z,33.7
2018-12-03T18:20:06.007Z,33.9
2018-12-03T18:22:05.123Z,34
2018-12-03T18:24:05.619Z,33.9
2018-12-03T18:26:05.561Z,33.9
2018-12-03T18:28:05.671Z,33.9
2018-12-03T18:30:05.670Z,33.9
2018-12-03T18:32:05.349Z,33.7
2018-12-03T18:34:10.086Z,33.9
2018-12-03T18:36:06.262Z,33.9
2018-12-03T18:38:06.500Z,33.6
2018-12-03T18:40:06.421Z,33.7
2018-12-03T18:42:05.349Z,33.8
2018-12-03T18:44:07.643Z,33.8
2018-12-03T18:46:05.854Z,33.8
2018-12-03T18:48:06.668Z,33.8
2018-12-03T18:50:08.383Z,33.9
2018-12-03T18:52:08.433Z,33.8
2018-12-03T18:54:08.113Z,33.8
2018-12-03T18:56:06.682Z,33.8
2018-12-03T18:58:06.624Z,33.8
2018-12-03T19:00:08.250Z,33.8
2018-12-03T19:02:07.869Z,33.8
2018-12-03T19:04:05.734Z,33.6
2018-12-03T19:06:05.863Z,33.8
2018-12-03T19:08:06.445Z,33.8
2018-12-03T19:10:05.513Z,33.8
2018-12-03T19:12:12.036Z,33.8
2018-12-03T19:14:06.966Z,33.8
2018-12-03T19:16:06.169Z,33.8
2018-12-03T19:18:06.763Z,33.6
2018-12-03T19:20:05.779Z,33.6
2018-12-03T19:22:05.783Z,33.6
2018-12-03T19:24:06.180Z,33.6
2018-12-03T19:26:07.130Z,33.6
2018-12-03T19:28:05.136Z,33.5
2018-12-03T19:30:07.796Z,33.7
2018-12-03T19:32:06.517Z,33.8
2018-12-03T19:34:05.334Z,33.8
2018-12-03T19:36:05.602Z,33.8
2018-12-03T19:38:13.103Z,33.7
2018-12-03T19:40:05.807Z,33.7
2018-12-03T19:42:05.818Z,33.7
2018-12-03T19:44:08.229Z,33.7
2018-12-03T19:46:11.949Z,33.7
2018-12-03T19:48:05.911Z,33.5
2018-12-03T19:50:06.633Z,33.6
2018-12-03T19:52:10.579Z,33.6
2018-12-03T19:54:09.338Z,33.6
2018-12-03T19:56:05.691Z,33.8
2018-12-03T19:58:05.875Z,33.5
2018-12-03T20:00:05.874Z,33.7
2018-12-03T20:02:05.583Z,33.7
2018-12-03T20:04:11.859Z,33.7
2018-12-03T20:06:05.685Z,33.5
2018-12-03T20:08:05.919Z,33.7
2018-12-03T20:10:06.075Z,33.7
2018-12-03T20:12:06.187Z,33.7
2018-12-03T20:14:06.436Z,33.7
2018-12-03T20:16:05.860Z,33.8
2018-12-03T20:18:11.155Z,33.7
2018-12-03T20:20:08.926Z,33.6
2018-12-03T20:22:10.454Z,33.7
2018-12-03T20:24:08.253Z,33.7
2018-12-03T20:26:08.645Z,33.7
2018-12-03T20:28:08.197Z,33.7
2018-12-03T20:30:06.117Z,33.7
2018-12-03T20:32:07.019Z,33.7
2018-12-03T20:34:05.978Z,33.7
2018-12-03T20:36:05.875Z,33.7
2018-12-03T20:38:10.795Z,33.7
2018-12-03T20:40:05.489Z,33.7
2018-12-03T20:42:07.996Z,33.8
2018-12-03T20:44:06.264Z,33.8
2018-12-03T20:46:08.733Z,34
2018-12-03T20:48:05.541Z,34.2
2018-12-03T20:50:07.025Z,34.3
2018-12-03T20:52:05.959Z,34.3
2018-12-03T20:54:07.838Z,34.4
2018-12-03T20:56:05.580Z,34.5
2018-12-03T20:58:05.403Z,34.5
2018-12-03T21:00:19.265Z,34.3
2018-12-03T21:02:10.490Z,34.3
2018-12-03T21:04:09.157Z,34.3
2018-12-03T21:06:05.335Z,34.3
2018-12-03T21:08:09.314Z,34.3
2018-12-03T21:10:13.343Z,34.3
2018-12-03T21:12:05.119Z,34.3
2018-12-03T21:14:05.277Z,34.3
2018-12-03T21:16:05.417Z,34.6
2018-12-03T21:18:05.818Z,34.3
2018-12-03T21:20:06.464Z,34.5
2018-12-03T21:22:05.158Z,34.4
2018-12-03T21:24:05.898Z,34.3
2018-12-03T21:26:18.259Z,34.3
2018-12-03T21:28:05.961Z,34.3
2018-12-03T21:30:05.625Z,34.4
2018-12-03T21:32:05.596Z,34.5
2018-12-03T21:34:05.872Z,34.5
2018-12-03T21:36:05.641Z,34.5
2018-12-03T21:38:05.422Z,34.4
2018-12-03T21:40:05.361Z,34.4
2018-12-03T21:42:07.689Z,34.6
2018-12-03T21:44:05.467Z,34.4
2018-12-03T21:46:05.127Z,34.4
2018-12-03T21:48:06.024Z,34.5
2018-12-03T21:50:07.605Z,34.5
2018-12-03T21:52:05.412Z,34.6
2018-12-03T21:54:05.169Z,34.7
2018-12-03T21:56:05.576Z,34.7
2018-12-03T21:58:05.608Z,34.5
2018-12-03T22:00:05.500Z,34.5
2018-12-03T22:02:05.178Z,34.6
2018-12-03T22:04:13.442Z,34.5
2018-12-03T22:06:05.122Z,34.5
2018-12-03T22:08:05.918Z,34.7
2018-12-03T22:10:05.628Z,34.8
2018-12-03T22:12:05.310Z,34.7
2018-12-03T22:14:07.938Z,34.7
2018-12-03T22:16:05.831Z,34.7
2018-12-03T22:18:08.282Z,34.6
2018-12-03T22:20:11.040Z,34.5
2018-12-03T22:22:06.004Z,34.5
2018-12-03T22:24:05.723Z,34.5
2018-12-03T22:26:05.994Z,34.5
2018-12-03T22:28:05.274Z,34.7
2018-12-03T22:30:06.046Z,34.7
2018-12-03T22:32:05.763Z,34.6
2018-12-03T22:34:05.679Z,34.6
2018-12-03T22:36:08.213Z,34.6
2018-12-03T22:38:05.458Z,34.6
2018-12-03T22:40:05.390Z,34.5
2018-12-03T22:42:07.687Z,34.5
2018-12-03T22:44:13.494Z,34.5
2018-12-03T22:46:05.232Z,34.5
2018-12-03T22:48:08.498Z,34.5
2018-12-03T22:50:05.189Z,34.5
2018-12-03T22:52:05.101Z,34.6
2018-12-03T22:54:05.379Z,34.7
2018-12-03T22:56:05.711Z,34.8
2018-12-03T22:58:05.936Z,34.5
2018-12-03T23:00:05.625Z,34.8
2018-12-03T23:02:05.911Z,34.5
2018-12-03T23:04:06.102Z,34.8
2018-12-03T23:06:05.295Z,34.6
2018-12-03T23:08:05.973Z,34.6
2018-12-03T23:10:05.721Z,34.7
2018-12-03T23:12:07.915Z,34.7
2018-12-03T23:14:05.614Z,34.6
2018-12-03T23:16:05.364Z,34.7
2018-12-03T23:18:05.423Z,34.6
2018-12-03T23:20:05.142Z,34.5
2018-12-03T23:22:08.395Z,34.5
2018-12-03T23:24:05.038Z,34.7
2018-12-03T23:26:05.665Z,34.5
2018-12-03T23:28:05.504Z,34.6
2018-12-03T23:30:05.209Z,34.4
2018-12-03T23:32:06.117Z,34.4
2018-12-03T23:34:08.378Z,34.5
2018-12-03T23:36:05.646Z,34.6
2018-12-03T23:38:05.368Z,34.6
2018-12-03T23:40:05.101Z,34.4
2018-12-03T23:42:05.863Z,34.4
2018-12-03T23:44:05.551Z,34.4
2018-12-03T23:46:05.336Z,34.5
2018-12-03T23:48:05.028Z,34.7
2018-12-03T23:50:05.800Z,34.3
2018-12-03T23:52:05.559Z,34.4
2018-12-03T23:54:05.248Z,34.7
2018-12-03T23:56:08.242Z,34.6
2018-12-03T23:58:13.577Z,34.6
